Ventura — ZCDT2 — position and weather

sailwx.info

Track history (hours):
 
Tides and Currents Weather Stations Pressure Air Temp Water Temp Dewpoint Dewpoint Depression Visibility Wind Speed Wind Dir Waves Ship Positions

Ventura

Last reported at 2015-Jul-01 16:33 UTC. Time now 2015-Jul-01 16:52 UTC.
Position N 38°11' W 009°27'.

Length 288 m; draft 8.6 m.

Type: Passenger vessel. MMSI: 310562000.

Date/timePositionNaut miles runAvg speedWind from/ knotsBaromVisibWave heightAir tempDewpointWater temp
2015-Jul-01 16:33N 38°11' W 009°27'2120.9
2015-Jul-01 15:34N 38°31' W 009°24'1413.4
2015-Jul-01 14:33N 38°41' W 009°12'2 0.2
2015-Jul-01 07:07N 38°42' W 009°10'0 0.0
2015-Jul-01 06:25N 38°42' W 009°10'1 1.1
2015-Jul-01 05:33N 38°42' W 009°11'10 9.7
2015-Jul-01 04:33N 38°37' W 009°23'1616.0
2015-Jul-01 03:33N 38°41' W 009°42'2120.7
2015-Jul-01 02:33N 39°02' W 009°44'1918.6
2015-Jul-01 01:33N 39°20' W 009°45'2019.6
2015-Jul-01 00:33N 39°40' W 009°45'1918.9
2015-Jun-30 23:33N 39°58' W 009°39'2019.0
2015-Jun-30 22:31N 40°17' W 009°34'1919.4
2015-Jun-30 21:33N 40°36' W 009°29'2019.4
2015-Jun-30 20:31N 40°56' W 009°23'85 6.0
2015-Jun-30 06:18N 42°18' W 008°58'1317.4
2015-Jun-30 05:33N 42°25' W 009°13'1918.6
2015-Jun-30 04:33N 42°35' W 009°35'1818.5
2015-Jun-30 03:33N 42°46' W 009°55'916.4
2015-Jun-30 03:00N 42°54' W 010°00'817.9 330 / 61014.910.8 0.519.515.317.5
2015-Jun-30 02:33N 43°01' W 010°05'2018.5
2015-Jun-30 01:28N 43°21' W 010°02'1819.8
2015-Jun-30 00:33N 43°37' W 009°50'2219.3
2015-Jun-29 23:24N 43°56' W 009°35'1619.6
2015-Jun-29 22:33N 44°10' W 009°23'6419.8
2015-Jun-29 19:18N 45°05' W 008°36'1519.6
2015-Jun-29 18:34N 45°17' W 008°24'9919.2
2015-Jun-29 13:26N 46°40' W 007°08'5619.3
2015-Jun-29 10:33N 47°27' W 006°25'1817.8
2015-Jun-29 09:33N 47°42' W 006°11'1818.3
2015-Jun-29 08:33N 47°58' W 005°56'1918.9
2015-Jun-29 07:34N 48°14' W 005°41'1919.2
2015-Jun-29 06:33N 48°30' W 005°25'2019.3
2015-Jun-29 05:32N 48°44' W 005°05'2018.9
2015-Jun-29 04:27N 48°58' W 004°42'1718.1
2015-Jun-29 03:31N 49°08' W 004°22'1528.1
2015-Jun-29 03:00N 49°12' W 004°00'817.0 300 / 61023.1 5.4 0.516.614.915.5
2015-Jun-29 02:32N 49°20' W 004°01'1717.8
2015-Jun-29 01:33N 49°32' W 003°42'2218.5
2015-Jun-29 00:24N 49°46' W 003°16'1719.6
2015-Jun-28 23:32N 49°58' W 002°58'2020.1
2015-Jun-28 22:33N 50°06' W 002°30'2020.1
2015-Jun-28 21:33N 50°15' W 002°02'1919.1
2015-Jun-28 20:32N 50°22' W 001°34'1818.2
2015-Jun-28 19:33N 50°30' W 001°09'1413.7
2015-Jun-28 18:33N 50°43' W 000°59'1313.3
2015-Jun-28 17:34N 50°48' W 001°18'7 6.6
2015-Jun-28 16:33N 50°53' W 001°24'0 0.2
2015-Jun-28 15:23N 50°54' W 001°24'0 0.0
2015-Jun-28 14:20N 50°54' W 001°24'0 0.0
2015-Jun-28 13:32N 50°54' W 001°24'0 0.0
2015-Jun-28 12:32N 50°54' W 001°24'0 0.0
2015-Jun-28 11:23N 50°54' W 001°24'0 0.0
2015-Jun-28 10:29N 50°54' W 001°24'0 0.0
2015-Jun-28 08:29N 50°54' W 001°24'0 0.0
2015-Jun-28 07:26N 50°54' W 001°24'0 0.0
2015-Jun-28 06:32N 50°54' W 001°24'3 3.0
2015-Jun-28 05:33N 50°51' W 001°21'9 8.6
2015-Jun-28 04:34N 50°46' W 001°11'1413.7
2015-Jun-28 03:33N 50°38' W 000°53'1616.5
2015-Jun-28 02:33N 50°35' W 000°28'1817.6
2015-Jun-28 01:33N 50°32' W 000°00'1818.1
2015-Jun-28 00:33N 50°36' E 000°27'1818.4
2015-Jun-27 23:33N 50°47' E 000°52'1817.8
2015-Jun-27 22:31N 50°58' E 001°15'1515.6
2015-Jun-27 21:33N 51°07' E 001°33'1514.7
2015-Jun-27 20:33N 51°18' E 001°49'1313.1
2015-Jun-27 19:33N 51°23' E 002°09'1515.3
2015-Jun-27 18:33N 51°23' E 002°33'1515.4
2015-Jun-27 17:33N 51°23' E 002°58'9 9.4
2015-Jun-27 16:34N 51°20' E 003°12'0 0.0
2015-Jun-27 15:31N 51°20' E 003°12'0 0.0
2015-Jun-27 14:31N 51°20' E 003°12'0 0.0
2015-Jun-27 13:28N 51°20' E 003°12'0 0.0
2015-Jun-27 12:31N 51°20' E 003°12'0 0.0
2015-Jun-27 11:28N 51°20' E 003°12'0 0.0
2015-Jun-27 10:31N 51°20' E 003°12'0 0.0
2015-Jun-27 09:28N 51°20' E 003°12'0 0.0
2015-Jun-27 08:25N 51°20' E 003°12'0 0.0
2015-Jun-27 07:33N 51°20' E 003°12'7 7.3
2015-Jun-27 06:33N 51°24' E 003°02'1413.9
2015-Jun-27 05:33N 51°22' E 002°41'1817.9
2015-Jun-27 04:33N 51°16' E 002°14'1818.5
2015-Jun-27 03:33N 51°07' E 001°48'1817.7
2015-Jun-27 02:33N 50°55' E 001°27'1818.0
2015-Jun-27 01:33N 50°39' E 001°14'1918.5
2015-Jun-27 00:32N 50°28' E 000°51'1918.8
2015-Jun-26 23:30N 50°22' E 000°22'5418.2
2015-Jun-26 20:33N 50°06' W 000°58'1818.1
2015-Jun-26 19:33N 50°00' W 001°25'1918.6
2015-Jun-26 18:33N 49°53' W 001°52'2318.2
2015-Jun-26 17:19N 49°36' W 002°15'13 1.3
2015-Jun-26 07:21N 49°27' W 002°30'0 0.1
2015-Jun-26 06:15N 49°27' W 002°30'0 0.1
2015-Jun-26 05:31N 49°27' W 002°30'7 7.6
2015-Jun-26 04:32N 49°23' W 002°21'9 9.0
2015-Jun-26 03:33N 49°29' W 002°11'1110.8
2015-Jun-26 02:31N 49°40' W 002°06'8 8.7
2015-Jun-26 01:33N 49°48' W 002°04'9 9.5
2015-Jun-26 00:33N 49°57' W 002°03'10 9.8
2015-Jun-25 23:33N 50°07' W 002°01'1010.0
2015-Jun-25 22:33N 50°17' W 001°58'1010.2
2015-Jun-25 21:33N 50°22' W 001°44'1111.4
2015-Jun-25 20:33N 50°26' W 001°27'1211.8
2015-Jun-25 19:33N 50°30' W 001°10'10 9.9
2015-Jun-25 18:33N 50°37' W 000°59'10 9.5
2015-Jun-25 17:33N 50°45' W 001°07'10 9.8
2015-Jun-25 16:33N 50°51' W 001°20'4 3.9
2015-Jun-25 15:33N 50°54' W 001°24'0 0.0
2015-Jun-25 14:33N 50°54' W 001°24'0 0.0
2015-Jun-25 13:33N 50°54' W 001°24'0 0.0
2015-Jun-25 12:33N 50°54' W 001°24'0 0.0
2015-Jun-25 11:33N 50°54' W 001°24'0 0.0
2015-Jun-25 10:33N 50°54' W 001°24'0 0.0
2015-Jun-25 09:33N 50°54' W 001°24'0 0.0
2015-Jun-25 08:33N 50°54' W 001°24'0 0.0
2015-Jun-25 07:33N 50°54' W 001°24'0 0.0
2015-Jun-25 06:33N 50°54' W 001°24'0 0.0
2015-Jun-25 05:33N 50°54' W 001°24'5 5.0
2015-Jun-25 04:33N 50°50' W 001°19'1010.1
2015-Jun-25 03:33N 50°45' W 001°05'10 9.9
2015-Jun-25 02:33N 50°35' W 000°59'711.9
2015-Jun-25 02:00N 50°30' W 001°06'1023.0 180 / 31022.610.8 17.012.514.7
2015-Jun-25 01:33N 50°28' W 001°21'1716.6
2015-Jun-25 00:33N 50°21' W 001°45'1515.3
2015-Jun-24 23:33N 50°10' W 002°01'1515.0
2015-Jun-24 22:34N 49°58' W 002°16'1515.5
2015-Jun-24 21:33N 49°54' W 002°39'1514.8
2015-Jun-24 20:33N 49°47' W 002°60'1614.8
2015-Jun-24 19:27N 49°38' W 003°20'3614.8
2015-Jun-24 17:00N 49°12' W 004°00'2816.0 340 / 91022.610.8 16.812.114.3
2015-Jun-24 15:15N 48°59' W 004°38'1215.4
2015-Jun-24 14:28N 48°52' W 004°52'1615.4
2015-Jun-24 13:28N 48°42' W 005°10'1415.8
2015-Jun-24 12:33N 48°31' W 005°24'1616.4
2015-Jun-24 11:33N 48°16' W 005°35'1716.7
2015-Jun-24 10:33N 48°01' W 005°45'1717.0
2015-Jun-24 09:32N 47°45' W 005°55'3817.4
2015-Jun-24 07:20N 47°10' W 006°17'1617.7
2015-Jun-24 06:25N 46°55' W 006°26'241 8.8
2015-Jun-23 03:00N 43°24' W 009°12'15011.5 100 / 81018.3 2.2 0.517.015.314.1
2015-Jun-22 14:00N 41°12' W 010°48'6514.6 260 / 181017.510.8 0.520.015.817.6
2015-Jun-22 09:33N 40°15' W 011°29'1413.2
2015-Jun-22 08:30N 40°03' W 011°37'1313.1
2015-Jun-22 07:33N 39°52' W 011°44'1413.1
2015-Jun-22 06:31N 39°40' W 011°52'1313.2
2015-Jun-22 05:33N 39°28' W 012°00'1313.2
2015-Jun-22 04:33N 39°17' W 012°08'1413.2
2015-Jun-22 03:31N 39°05' W 012°16'1120.5
2015-Jun-22 03:00N 38°54' W 012°18'4 9.7 290 / 271018.310.8 0.518.013.618.8
2015-Jun-22 02:33N 38°53' W 012°23'1313.2
2015-Jun-22 01:32N 38°42' W 012°31'1313.2
2015-Jun-22 00:33N 38°30' W 012°39'1313.2
2015-Jun-21 23:33N 38°18' W 012°47'1313.1
2015-Jun-21 22:33N 38°07' W 012°54'1313.1
2015-Jun-21 21:33N 37°55' W 013°02'1313.2
2015-Jun-21 20:33N 37°43' W 013°10'1313.2
2015-Jun-21 19:33N 37°32' W 013°17'1313.1
2015-Jun-21 18:33N 37°20' W 013°25'1313.2
2015-Jun-21 17:33N 37°08' W 013°33'1313.2
2015-Jun-21 16:33N 36°57' W 013°40'  
Track history (hours):
 
Tides and Currents Weather Stations Pressure Air Temp Water Temp Dewpoint Dewpoint Depression Visibility Wind Speed Wind Dir Waves Ship Positions

Ventura

Last reported at 2015-Jul-01 16:33 UTC. Time now 2015-Jul-01 16:52 UTC.
Position N 38°11' W 009°27'.

Length 288 m; draft 8.6 m.

Type: Passenger vessel. MMSI: 310562000.

Date/timePositionNaut miles runAvg speedWind from/ knotsBaromVisibWave heightAir tempDewpointWater temp
2015-Jul-01 16:33N 38°11' W 009°27'2120.9
2015-Jul-01 15:34N 38°31' W 009°24'1413.4
2015-Jul-01 14:33N 38°41' W 009°12'2 0.2
2015-Jul-01 07:07N 38°42' W 009°10'0 0.0
2015-Jul-01 06:25N 38°42' W 009°10'1 1.1
2015-Jul-01 05:33N 38°42' W 009°11'10 9.7
2015-Jul-01 04:33N 38°37' W 009°23'1616.0
2015-Jul-01 03:33N 38°41' W 009°42'2120.7
2015-Jul-01 02:33N 39°02' W 009°44'1918.6
2015-Jul-01 01:33N 39°20' W 009°45'2019.6
2015-Jul-01 00:33N 39°40' W 009°45'1918.9
2015-Jun-30 23:33N 39°58' W 009°39'2019.0
2015-Jun-30 22:31N 40°17' W 009°34'1919.4
2015-Jun-30 21:33N 40°36' W 009°29'2019.4
2015-Jun-30 20:31N 40°56' W 009°23'85 6.0
2015-Jun-30 06:18N 42°18' W 008°58'1317.4
2015-Jun-30 05:33N 42°25' W 009°13'1918.6
2015-Jun-30 04:33N 42°35' W 009°35'1818.5
2015-Jun-30 03:33N 42°46' W 009°55'916.4
2015-Jun-30 03:00N 42°54' W 010°00'817.9 330 / 61014.910.8 0.519.515.317.5
2015-Jun-30 02:33N 43°01' W 010°05'2018.5
2015-Jun-30 01:28N 43°21' W 010°02'1819.8
2015-Jun-30 00:33N 43°37' W 009°50'2219.3
2015-Jun-29 23:24N 43°56' W 009°35'1619.6
2015-Jun-29 22:33N 44°10' W 009°23'6419.8
2015-Jun-29 19:18N 45°05' W 008°36'1519.6
2015-Jun-29 18:34N 45°17' W 008°24'9919.2
2015-Jun-29 13:26N 46°40' W 007°08'5619.3
2015-Jun-29 10:33N 47°27' W 006°25'1817.8
2015-Jun-29 09:33N 47°42' W 006°11'1818.3
2015-Jun-29 08:33N 47°58' W 005°56'1918.9
2015-Jun-29 07:34N 48°14' W 005°41'1919.2
2015-Jun-29 06:33N 48°30' W 005°25'2019.3
2015-Jun-29 05:32N 48°44' W 005°05'2018.9
2015-Jun-29 04:27N 48°58' W 004°42'1718.1
2015-Jun-29 03:31N 49°08' W 004°22'1528.1
2015-Jun-29 03:00N 49°12' W 004°00'817.0 300 / 61023.1 5.4 0.516.614.915.5
2015-Jun-29 02:32N 49°20' W 004°01'1717.8
2015-Jun-29 01:33N 49°32' W 003°42'2218.5
2015-Jun-29 00:24N 49°46' W 003°16'1719.6
2015-Jun-28 23:32N 49°58' W 002°58'2020.1
2015-Jun-28 22:33N 50°06' W 002°30'2020.1
2015-Jun-28 21:33N 50°15' W 002°02'1919.1
2015-Jun-28 20:32N 50°22' W 001°34'1818.2
2015-Jun-28 19:33N 50°30' W 001°09'1413.7
2015-Jun-28 18:33N 50°43' W 000°59'1313.3
2015-Jun-28 17:34N 50°48' W 001°18'7 6.6
2015-Jun-28 16:33N 50°53' W 001°24'0 0.2
2015-Jun-28 15:23N 50°54' W 001°24'0 0.0
2015-Jun-28 14:20N 50°54' W 001°24'0 0.0
2015-Jun-28 13:32N 50°54' W 001°24'0 0.0
2015-Jun-28 12:32N 50°54' W 001°24'0 0.0
2015-Jun-28 11:23N 50°54' W 001°24'0 0.0
2015-Jun-28 10:29N 50°54' W 001°24'0 0.0
2015-Jun-28 08:29N 50°54' W 001°24'0 0.0
2015-Jun-28 07:26N 50°54' W 001°24'0 0.0
2015-Jun-28 06:32N 50°54' W 001°24'3 3.0
2015-Jun-28 05:33N 50°51' W 001°21'9 8.6
2015-Jun-28 04:34N 50°46' W 001°11'1413.7
2015-Jun-28 03:33N 50°38' W 000°53'1616.5
2015-Jun-28 02:33N 50°35' W 000°28'1817.6
2015-Jun-28 01:33N 50°32' W 000°00'1818.1
2015-Jun-28 00:33N 50°36' E 000°27'1818.4
2015-Jun-27 23:33N 50°47' E 000°52'1817.8
2015-Jun-27 22:31N 50°58' E 001°15'1515.6
2015-Jun-27 21:33N 51°07' E 001°33'1514.7
2015-Jun-27 20:33N 51°18' E 001°49'1313.1
2015-Jun-27 19:33N 51°23' E 002°09'1515.3
2015-Jun-27 18:33N 51°23' E 002°33'1515.4
2015-Jun-27 17:33N 51°23' E 002°58'9 9.4
2015-Jun-27 16:34N 51°20' E 003°12'0 0.0
2015-Jun-27 15:31N 51°20' E 003°12'0 0.0
2015-Jun-27 14:31N 51°20' E 003°12'0 0.0
2015-Jun-27 13:28N 51°20' E 003°12'0 0.0
2015-Jun-27 12:31N 51°20' E 003°12'0 0.0
2015-Jun-27 11:28N 51°20' E 003°12'0 0.0
2015-Jun-27 10:31N 51°20' E 003°12'0 0.0
2015-Jun-27 09:28N 51°20' E 003°12'0 0.0
2015-Jun-27 08:25N 51°20' E 003°12'0 0.0
2015-Jun-27 07:33N 51°20' E 003°12'7 7.3
2015-Jun-27 06:33N 51°24' E 003°02'1413.9
2015-Jun-27 05:33N 51°22' E 002°41'1817.9
2015-Jun-27 04:33N 51°16' E 002°14'1818.5
2015-Jun-27 03:33N 51°07' E 001°48'1817.7
2015-Jun-27 02:33N 50°55' E 001°27'1818.0
2015-Jun-27 01:33N 50°39' E 001°14'1918.5
2015-Jun-27 00:32N 50°28' E 000°51'1918.8
2015-Jun-26 23:30N 50°22' E 000°22'5418.2
2015-Jun-26 20:33N 50°06' W 000°58'1818.1
2015-Jun-26 19:33N 50°00' W 001°25'1918.6
2015-Jun-26 18:33N 49°53' W 001°52'2318.2
2015-Jun-26 17:19N 49°36' W 002°15'13 1.3
2015-Jun-26 07:21N 49°27' W 002°30'0 0.1
2015-Jun-26 06:15N 49°27' W 002°30'0 0.1
2015-Jun-26 05:31N 49°27' W 002°30'7 7.6
2015-Jun-26 04:32N 49°23' W 002°21'9 9.0
2015-Jun-26 03:33N 49°29' W 002°11'1110.8
2015-Jun-26 02:31N 49°40' W 002°06'8 8.7
2015-Jun-26 01:33N 49°48' W 002°04'9 9.5
2015-Jun-26 00:33N 49°57' W 002°03'10 9.8
2015-Jun-25 23:33N 50°07' W 002°01'1010.0
2015-Jun-25 22:33N 50°17' W 001°58'1010.2
2015-Jun-25 21:33N 50°22' W 001°44'1111.4
2015-Jun-25 20:33N 50°26' W 001°27'1211.8
2015-Jun-25 19:33N 50°30' W 001°10'10 9.9
2015-Jun-25 18:33N 50°37' W 000°59'10 9.5
2015-Jun-25 17:33N 50°45' W 001°07'10 9.8
2015-Jun-25 16:33N 50°51' W 001°20'4 3.9
2015-Jun-25 15:33N 50°54' W 001°24'0 0.0
2015-Jun-25 14:33N 50°54' W 001°24'0 0.0
2015-Jun-25 13:33N 50°54' W 001°24'0 0.0
2015-Jun-25 12:33N 50°54' W 001°24'0 0.0
2015-Jun-25 11:33N 50°54' W 001°24'0 0.0
2015-Jun-25 10:33N 50°54' W 001°24'0 0.0
2015-Jun-25 09:33N 50°54' W 001°24'0 0.0
2015-Jun-25 08:33N 50°54' W 001°24'0 0.0
2015-Jun-25 07:33N 50°54' W 001°24'0 0.0
2015-Jun-25 06:33N 50°54' W 001°24'0 0.0
2015-Jun-25 05:33N 50°54' W 001°24'5 5.0
2015-Jun-25 04:33N 50°50' W 001°19'1010.1
2015-Jun-25 03:33N 50°45' W 001°05'10 9.9
2015-Jun-25 02:33N 50°35' W 000°59'711.9
2015-Jun-25 02:00N 50°30' W 001°06'1023.0 180 / 31022.610.8 17.012.514.7
2015-Jun-25 01:33N 50°28' W 001°21'1716.6
2015-Jun-25 00:33N 50°21' W 001°45'1515.3
2015-Jun-24 23:33N 50°10' W 002°01'1515.0
2015-Jun-24 22:34N 49°58' W 002°16'1515.5
2015-Jun-24 21:33N 49°54' W 002°39'1514.8
2015-Jun-24 20:33N 49°47' W 002°60'1614.8
2015-Jun-24 19:27N 49°38' W 003°20'3614.8
2015-Jun-24 17:00N 49°12' W 004°00'2816.0 340 / 91022.610.8 16.812.114.3
2015-Jun-24 15:15N 48°59' W 004°38'1215.4
2015-Jun-24 14:28N 48°52' W 004°52'1615.4
2015-Jun-24 13:28N 48°42' W 005°10'1415.8
2015-Jun-24 12:33N 48°31' W 005°24'1616.4
2015-Jun-24 11:33N 48°16' W 005°35'1716.7
2015-Jun-24 10:33N 48°01' W 005°45'1717.0
2015-Jun-24 09:32N 47°45' W 005°55'3817.4
2015-Jun-24 07:20N 47°10' W 006°17'1617.7
2015-Jun-24 06:25N 46°55' W 006°26'241 8.8
2015-Jun-23 03:00N 43°24' W 009°12'15011.5 100 / 81018.3 2.2 0.517.015.314.1
2015-Jun-22 14:00N 41°12' W 010°48'6514.6 260 / 181017.510.8 0.520.015.817.6
2015-Jun-22 09:33N 40°15' W 011°29'1413.2
2015-Jun-22 08:30N 40°03' W 011°37'1313.1
2015-Jun-22 07:33N 39°52' W 011°44'1413.1
2015-Jun-22 06:31N 39°40' W 011°52'1313.2
2015-Jun-22 05:33N 39°28' W 012°00'1313.2
2015-Jun-22 04:33N 39°17' W 012°08'1413.2
2015-Jun-22 03:31N 39°05' W 012°16'1120.5
2015-Jun-22 03:00N 38°54' W 012°18'4 9.7 290 / 271018.310.8 0.518.013.618.8
2015-Jun-22 02:33N 38°53' W 012°23'1313.2
2015-Jun-22 01:32N 38°42' W 012°31'1313.2
2015-Jun-22 00:33N 38°30' W 012°39'1313.2
2015-Jun-21 23:33N 38°18' W 012°47'1313.1
2015-Jun-21 22:33N 38°07' W 012°54'1313.1
2015-Jun-21 21:33N 37°55' W 013°02'1313.2
2015-Jun-21 20:33N 37°43' W 013°10'1313.2
2015-Jun-21 19:33N 37°32' W 013°17'1313.1
2015-Jun-21 18:33N 37°20' W 013°25'1313.2
2015-Jun-21 17:33N 37°08' W 013°33'1313.2
2015-Jun-21 16:33N 36°57' W 013°40'  

Dump ship's entire track history